Time;durP1;ratioP1;P1;durP2;ratioP2;P2;SDS_P1;SDS_P2;PMS_P1;PMS_P2;Temp;Humidity;BMP_temperature;BMP_pressure;BME280_temperature;BME280_humidity;BME280_pressure;Samples;Min_cycle;Max_cycle;Signal;HPM_P1;HPM_P2
2023/05/30 00:00:12;;;;;;;15.13;4.10;;;13.80;84.30;;;13.62;59.02;101819.97;5076069;28;20194;-72
2023/05/30 00:02:44;;;;;;;15.53;3.83;;;13.80;85.10;;;13.63;58.44;101827.06;5075652;28;20315;-72
2023/05/30 00:05:17;;;;;;;16.30;4.73;;;13.80;85.50;;;13.53;59.61;101824.41;5075776;28;20189;-72
2023/05/30 00:07:49;;;;;;;14.73;3.70;;;13.70;86.20;;;13.45;59.60;101823.50;5075728;28;20225;-72
2023/05/30 00:10:21;;;;;;;16.77;4.60;;;13.60;87.20;;;13.54;59.65;101822.59;5075638;28;20276;-72
2023/05/30 00:12:54;;;;;;;12.87;3.87;;;13.70;87.50;;;13.37;60.59;101826.94;5074765;28;20748;-72
2023/05/30 00:15:26;;;;;;;22.00;4.40;;;13.60;88.20;;;13.30;59.88;101823.19;5075342;28;20190;-72
2023/05/30 00:17:58;;;;;;;16.50;4.33;;;13.60;88.60;;;13.35;60.53;101828.97;5075170;28;20559;-72
2023/05/30 00:20:33;;;;;;;13.77;4.20;;;13.50;89.00;;;13.42;60.20;101830.06;5075465;28;20186;-71
2023/05/30 00:23:05;;;;;;;13.97;3.97;;;13.60;88.90;;;13.38;59.65;101828.66;5075474;28;20225;-71
2023/05/30 00:25:37;;;;;;;16.57;4.17;;;13.60;89.00;;;13.27;60.24;101826.19;5075350;28;20190;-71
2023/05/30 00:28:09;;;;;;;16.63;3.67;;;13.50;89.80;;;13.17;61.29;101826.25;5075301;28;20217;-71
2023/05/30 00:30:41;;;;;;;22.97;4.63;;;13.40;90.20;;;13.08;60.98;101815.50;5075484;28;20277;-72
2023/05/30 00:33:13;;;;;;;19.00;4.70;;;13.30;90.60;;;13.12;60.39;101824.97;5075202;28;20260;-72
2023/05/30 00:35:46;;;;;;;11.40;3.67;;;13.40;90.60;;;13.12;60.75;101822.28;5075104;28;20200;-72
2023/05/30 00:38:18;;;;;;;16.83;4.40;;;13.30;90.60;;;13.10;61.92;101818.91;5075097;28;20259;-72
2023/05/30 00:40:50;;;;;;;14.77;4.40;;;13.30;90.80;;;13.01;62.31;101819.81;5074648;28;20239;-72
2023/05/30 00:43:22;;;;;;;13.97;4.30;;;13.30;91.00;;;12.86;62.39;101821.28;5074919;28;20282;-72
2023/05/30 00:45:57;;;;;;;15.63;4.13;;;13.10;91.10;;;12.89;62.54;101826.34;5074911;28;20296;-72
2023/05/30 00:48:29;;;;;;;20.17;4.93;;;13.10;91.70;;;12.82;62.77;101830.63;5074897;28;20197;-71
2023/05/30 00:51:05;;;;;;;18.63;4.90;;;13.10;91.80;;;12.83;62.86;101829.63;5074966;28;20280;-71
2023/05/30 00:53:37;;;;;;;14.03;4.67;;;13.10;91.70;;;12.79;62.88;101823.72;5074479;28;20641;-72
2023/05/30 00:56:12;;;;;;;18.93;4.50;;;13.10;91.90;;;12.73;62.88;101831.53;5074741;28;20280;-72
2023/05/30 00:58:45;;;;;;;16.80;4.30;;;13.00;92.30;;;12.61;63.69;101830.84;5074655;28;20221;-72
2023/05/30 01:01:18;;;;;;;14.20;3.80;;;12.80;92.70;;;12.44;64.68;101837.84;5074205;28;20264;-72
2023/05/30 01:03:51;;;;;;;17.73;4.90;;;12.80;92.90;;;12.52;64.07;101834.44;5074621;28;20193;-72
2023/05/30 01:06:27;;;;;;;18.10;4.30;;;12.80;92.70;;;12.41;63.93;101842.66;5074503;28;20190;-72
2023/05/30 01:09:00;;;;;;;14.77;3.77;;;12.70;93.00;;;12.42;64.92;101847.91;5074500;28;20189;-72
2023/05/30 01:11:48;;;;;;;15.03;3.93;;;12.70;93.30;;;12.42;63.62;101845.22;5074403;28;20229;-72
2023/05/30 01:14:33;;;;;;;15.23;3.80;;;12.70;93.10;;;12.41;64.54;101848.88;5074361;28;20224;-71
2023/05/30 01:17:16;;;;;;;15.87;4.30;;;12.60;93.40;;;12.44;63.83;101840.53;5074183;28;20295;-72
2023/05/30 01:20:05;;;;;;;18.00;5.23;;;12.70;93.20;;;12.17;64.66;101840.44;5074254;28;20196;-72
2023/05/30 01:22:54;;;;;;;12.37;4.20;;;12.50;93.40;;;12.20;64.87;101841.00;5074058;28;20230;-72
2023/05/30 01:25:41;;;;;;;15.80;4.33;;;12.40;94.00;;;12.14;64.98;101838.06;5073015;28;20200;-72
2023/05/30 01:28:20;;;;;;;12.93;4.63;;;12.40;94.00;;;12.19;64.83;101849.22;5074090;28;20190;-72
2023/05/30 01:30:56;;;;;;;20.13;4.40;;;12.40;93.90;;;12.20;64.31;101840.16;5074090;28;20189;-72
2023/05/30 01:33:31;;;;;;;16.57;4.07;;;12.40;94.00;;;12.02;64.76;101833.84;5073985;28;20251;-72
2023/05/30 01:36:02;;;;;;;10.83;4.10;;;12.40;94.20;;;12.05;65.13;101833.56;5074076;28;20189;-71
2023/05/30 01:38:37;;;;;;;14.17;4.23;;;12.30;94.40;;;12.08;64.96;101831.44;5073712;28;20709;-72
2023/05/30 01:41:25;;;;;;;21.67;4.70;;;12.40;94.30;;;11.81;66.05;101833.16;5073954;28;20298;-72
2023/05/30 01:44:09;;;;;;;15.47;4.20;;;12.30;94.20;;;11.59;66.89;101844.97;5074249;28;20224;-71
2023/05/30 01:46:51;;;;;;;14.47;4.00;;;12.00;94.90;;;11.52;67.09;101836.63;5073902;28;20280;-71
2023/05/30 01:49:33;;;;;;;21.37;4.57;;;11.80;95.70;;;11.63;66.92;101836.50;5073756;28;20285;-72
2023/05/30 01:52:12;;;;;;;16.20;5.13;;;12.00;95.50;;;11.68;66.80;101833.38;5073706;28;20233;-71
2023/05/30 01:54:51;;;;;;;17.40;4.60;;;12.00;95.40;;;11.62;66.65;101829.44;5073721;28;20189;-72
2023/05/30 01:57:27;;;;;;;20.67;4.20;;;12.00;95.50;;;11.54;67.20;101831.97;5073643;28;20709;-72
2023/05/30 02:00:03;;;;;;;19.43;4.73;;;11.90;95.70;;;11.54;67.49;101831.13;5073277;28;20615;-72
2023/05/30 02:02:35;;;;;;;15.73;4.57;;;11.80;95.80;;;11.55;67.46;101833.66;5073416;28;20711;-72
2023/05/30 02:05:07;;;;;;;17.20;4.63;;;11.90;95.90;;;11.48;67.95;101840.56;5073598;28;20240;-73
2023/05/30 02:07:39;;;;;;;17.53;4.87;;;11.80;96.10;;;11.15;69.18;101840.94;5073216;28;20289;-73
2023/05/30 02:10:13;;;;;;;15.53;4.50;;;11.50;96.40;;;11.01;70.14;101841.31;5073233;28;20638;-73
2023/05/30 02:12:45;;;;;;;18.87;4.57;;;11.50;96.70;;;11.11;69.02;101850.22;5073133;28;20769;-73
2023/05/30 02:15:18;;;;;;;18.70;4.67;;;11.50;97.00;;;11.24;68.61;101845.47;5073856;28;20190;-73
2023/05/30 02:17:50;;;;;;;17.93;4.73;;;11.60;96.70;;;11.30;68.22;101855.63;5073447;28;20185;-72
2023/05/30 02:20:22;;;;;;;15.87;5.27;;;11.70;96.40;;;11.17;69.16;101855.88;5073378;28;20190;-73
2023/05/30 02:22:54;;;;;;;19.00;5.37;;;11.60;96.80;;;10.80;70.72;101859.28;5073238;28;20279;-73
2023/05/30 02:25:26;;;;;;;17.37;4.87;;;11.40;97.50;;;11.14;69.42;101858.00;5073393;28;20281;-73
2023/05/30 02:27:59;;;;;;;13.50;4.60;;;11.50;97.20;;;11.10;69.80;101859.25;5073188;28;20213;-72
2023/05/30 02:30:32;;;;;;;20.40;4.90;;;11.50;97.10;;;11.10;69.60;101857.41;5073337;28;20236;-73
2023/05/30 02:33:04;;;;;;;18.33;4.77;;;11.50;97.20;;;10.95;70.49;101860.63;5072942;28;20668;-73
2023/05/30 02:35:36;;;;;;;18.73;5.10;;;11.30;97.60;;;11.12;69.44;101860.81;5074451;28;20204;-73
2023/05/30 02:38:08;;;;;;;17.17;4.83;;;11.50;97.40;;;11.03;69.84;101866.97;5077284;28;20200;-73
2023/05/30 02:40:39;;;;;;;15.93;4.93;;;11.40;97.70;;;11.11;69.41;101867.16;5076942;28;20197;-73
2023/05/30 02:43:11;;;;;;;16.33;5.13;;;11.50;97.30;;;11.00;70.14;101874.44;5076848;28;20210;-73
2023/05/30 02:45:53;;;;;;;18.03;4.40;;;11.40;97.60;;;11.05;69.61;101878.44;5076964;28;20276;-73
2023/05/30 02:48:25;;;;;;;13.87;4.53;;;11.40;97.50;;;11.16;68.93;101881.00;5076902;28;20560;-73
2023/05/30 02:50:57;;;;;;;19.50;4.33;;;11.60;97.10;;;11.12;69.91;101879.59;5077026;28;20255;-74
2023/05/30 02:53:27;;;;;;;22.33;5.30;;;11.50;97.50;;;11.02;70.01;101884.06;5077562;28;20197;-74
2023/05/30 02:56:00;;;;;;;16.33;4.40;;;11.40;97.80;;;10.70;71.08;101891.38;5076903;28;20705;-75
2023/05/30 02:58:32;;;;;;;17.73;4.37;;;11.20;97.80;;;10.74;71.87;101884.78;5076978;28;20280;-75
2023/05/30 03:01:07;;;;;;;20.13;5.17;;;11.20;98.40;;;10.85;70.84;101882.03;5076857;28;20196;-75
2023/05/30 03:03:41;;;;;;;18.47;5.07;;;11.20;98.20;;;10.71;71.77;101885.06;5076767;28;20216;-75
2023/05/30 03:06:14;;;;;;;17.57;5.40;;;11.20;98.10;;;10.85;70.98;101886.53;5076767;28;20190;-75
2023/05/30 03:08:55;;;;;;;17.13;5.30;;;11.20;98.20;;;10.93;70.33;101884.88;5076734;28;20226;-75
2023/05/30 03:11:27;;;;;;;17.73;5.13;;;11.30;98.10;;;10.88;70.64;101886.25;5076311;28;20803;-75
2023/05/30 03:13:59;;;;;;;19.30;5.43;;;11.30;98.10;;;10.91;70.68;101888.66;5076659;28;20193;-75
2023/05/30 03:16:32;;;;;;;19.13;5.53;;;11.30;98.30;;;10.90;71.01;101884.28;5076330;28;20753;-75
2023/05/30 03:19:04;;;;;;;16.00;4.93;;;11.20;98.30;;;10.74;71.54;101889.28;5076557;28;20190;-75
2023/05/30 03:21:42;;;;;;;17.63;4.87;;;11.20;98.40;;;10.72;71.87;101893.94;5077357;28;20260;-75
2023/05/30 03:24:14;;;;;;;22.10;5.70;;;11.10;98.80;;;10.58;72.88;101895.97;5076438;28;20217;-74
2023/05/30 03:26:46;;;;;;;21.30;5.33;;;11.00;99.10;;;10.33;73.44;101896.38;5076424;28;20288;-74
2023/05/30 03:29:18;;;;;;;19.17;5.27;;;10.90;99.30;;;10.09;75.38;101909.13;5076075;28;20638;-74
2023/05/30 03:31:51;;;;;;;21.70;5.27;;;10.60;99.90;;;10.22;74.65;101915.19;5076303;28;20236;-74
2023/05/30 03:34:24;;;;;;;20.17;5.30;;;10.70;99.90;;;10.39;73.84;101906.56;5075981;28;20231;-75
2023/05/30 03:36:56;;;;;;;18.43;5.97;;;10.90;99.90;;;10.49;73.35;101907.47;5076279;28;20247;-75
2023/05/30 03:39:28;;;;;;;20.93;4.87;;;10.90;99.60;;;10.47;73.39;101911.28;5076166;28;20646;-75
2023/05/30 03:42:01;;;;;;;17.60;5.50;;;10.90;99.60;;;10.51;73.16;101910.03;5075781;28;20736;-74
2023/05/30 03:44:33;;;;;;;22.03;5.63;;;10.90;99.60;;;10.48;74.12;101915.66;5076006;28;20296;-75
2023/05/30 03:47:06;;;;;;;16.17;5.43;;;10.90;99.80;;;10.55;73.21;101909.63;5075313;28;20220;-73
2023/05/30 03:49:38;;;;;;;15.00;5.43;;;11.00;99.70;;;10.55;73.20;101909.63;5075644;28;20286;-75
2023/05/30 03:52:10;;;;;;;17.63;5.20;;;11.10;99.90;;;10.47;74.09;101925.50;5076127;28;20233;-74
2023/05/30 03:54:42;;;;;;;16.33;5.43;;;10.90;99.90;;;10.41;74.25;101923.31;5075686;28;20225;-74
2023/05/30 03:57:14;;;;;;;20.50;5.77;;;10.80;99.90;;;10.34;74.66;101927.53;5075904;28;20196;-74
2023/05/30 03:59:46;;;;;;;16.03;5.23;;;10.80;99.90;;;10.24;74.90;101934.63;5075851;28;20190;-75
2023/05/30 04:02:19;;;;;;;25.37;5.87;;;10.80;99.90;;;10.40;74.48;101929.69;5075769;28;20236;-74
2023/05/30 04:04:52;;;;;;;18.33;5.63;;;10.90;99.90;;;10.26;75.40;101932.69;5075717;28;20210;-75
2023/05/30 04:07:27;;;;;;;21.97;5.33;;;10.80;99.90;;;10.26;75.23;101926.47;5075713;28;20194;-75
2023/05/30 04:09:58;;;;;;;19.37;5.30;;;10.80;99.90;;;10.25;75.43;101930.97;5075648;28;20246;-75
2023/05/30 04:12:30;;;;;;;14.30;5.00;;;10.80;99.90;;;10.36;74.93;101933.59;5075230;28;20567;-74
2023/05/30 04:15:02;;;;;;;15.40;5.20;;;10.90;99.90;;;10.32;75.58;101932.16;5075633;28;20243;-74
2023/05/30 04:17:35;;;;;;;16.80;5.77;;;10.80;99.90;;;10.42;74.88;101932.22;5075096;28;20728;-74
2023/05/30 04:20:09;;;;;;;23.40;5.77;;;10.90;99.90;;;10.45;74.85;101931.94;5075154;28;20650;-73
2023/05/30 04:22:41;;;;;;;16.10;5.20;;;10.90;99.90;;;10.43;74.81;101939.28;5075332;28;20241;-74
2023/05/30 04:25:14;;;;;;;19.03;5.47;;;10.90;99.90;;;10.22;76.34;101943.75;5075427;28;20278;-73
2023/05/30 04:27:46;;;;;;;15.73;5.70;;;10.70;99.90;;;10.22;76.28;101935.72;5075778;28;20200;-73
2023/05/30 04:30:21;;;;;;;14.83;5.53;;;10.70;99.90;;;10.34;75.58;101946.28;5075474;28;20189;-74
2023/05/30 04:32:55;;;;;;;16.00;5.40;;;10.80;99.90;;;10.17;76.33;101944.16;5075199;28;20226;-74
2023/05/30 04:35:27;;;;;;;18.13;5.67;;;10.80;99.90;;;10.25;75.99;101951.53;5075300;28;20196;-74
2023/05/30 04:38:02;;;;;;;17.90;5.63;;;10.70;99.90;;;10.33;76.06;101949.91;5074999;28;20190;-75
2023/05/30 04:40:34;;;;;;;13.87;5.97;;;10.80;99.90;;;10.40;75.73;101951.09;5075123;28;20653;-74
2023/05/30 04:43:06;;;;;;;19.53;5.43;;;10.90;99.90;;;10.35;76.26;101949.78;5074791;28;20260;-73
2023/05/30 04:45:38;;;;;;;15.57;5.30;;;10.80;99.90;;;10.35;76.26;101952.44;5074901;28;20296;-74
2023/05/30 04:48:11;;;;;;;23.63;5.70;;;10.90;99.90;;;10.18;77.10;101953.88;5074902;28;20228;-74
2023/05/30 04:50:46;;;;;;;21.63;5.77;;;10.70;99.90;;;10.23;77.35;101956.19;5074870;28;20193;-74
2023/05/30 04:53:20;;;;;;;16.47;5.27;;;10.80;99.90;;;10.23;77.09;101959.72;5075199;28;20251;-74
2023/05/30 04:55:52;;;;;;;17.80;5.43;;;10.80;99.90;;;10.32;76.96;101953.56;5074451;28;20625;-74
2023/05/30 04:58:24;;;;;;;15.50;5.40;;;10.90;99.90;;;10.26;76.66;101943.38;5074640;28;20225;-75
2023/05/30 05:00:58;;;;;;;18.97;6.23;;;10.80;99.90;;;10.28;77.46;101954.81;5074509;28;20696;-75
2023/05/30 05:03:32;;;;;;;19.17;6.50;;;10.80;99.90;;;10.37;76.92;101946.00;5074535;28;20208;-74
2023/05/30 05:06:04;;;;;;;19.10;6.00;;;10.90;99.90;;;10.42;76.83;101946.47;5074624;28;20190;-74
2023/05/30 05:08:36;;;;;;;24.13;6.20;;;11.00;99.90;;;10.36;76.99;101941.63;5074220;28;20614;-74
2023/05/30 05:11:09;;;;;;;15.83;5.60;;;10.90;99.90;;;10.49;76.35;101938.75;5074764;28;20229;-68
2023/05/30 05:13:41;;;;;;;14.20;5.00;;;11.00;99.90;;;10.50;76.41;101948.50;5074671;28;20204;-73
2023/05/30 05:16:13;;;;;;;16.87;5.47;;;11.10;99.90;;;10.47;76.37;101941.56;5074104;28;20220;-74
2023/05/30 05:18:47;;;;;;;16.90;5.40;;;11.00;99.90;;;10.49;76.36;101944.97;5074323;28;20194;-72
2023/05/30 05:21:19;;;;;;;17.57;5.60;;;11.10;99.90;;;10.42;76.51;101949.13;5073857;28;20596;-72
2023/05/30 05:23:51;;;;;;;18.00;5.50;;;11.00;99.90;;;10.47;76.01;101948.75;5074152;28;20185;-72
2023/05/30 05:26:23;;;;;;;17.83;5.77;;;11.10;99.90;;;10.56;75.69;101951.50;5074174;28;20312;-72
2023/05/30 05:28:56;;;;;;;17.97;5.87;;;11.10;99.90;;;10.64;75.04;101953.53;5074128;28;20193;-72
2023/05/30 05:31:29;;;;;;;19.37;5.50;;;11.20;99.90;;;10.67;75.17;101955.94;5074042;28;20316;-72
2023/05/30 05:34:02;;;;;;;19.83;5.50;;;11.20;99.90;;;10.68;75.30;101950.44;5073790;28;20559;-72
2023/05/30 05:36:34;;;;;;;17.67;5.87;;;11.20;99.90;;;10.74;74.94;101950.91;5074054;28;20244;-72
2023/05/30 05:39:06;;;;;;;20.00;5.90;;;11.30;99.90;;;10.69;74.86;101948.59;5073901;28;20198;-74
2023/05/30 05:41:39;;;;;;;17.40;5.97;;;11.30;99.90;;;10.71;74.54;101948.50;5073609;28;20271;-72
2023/05/30 05:44:10;;;;;;;18.20;5.60;;;11.30;99.90;;;10.80;74.45;101945.00;5073515;28;20689;-73
2023/05/30 05:46:42;;;;;;;16.83;5.93;;;11.40;99.90;;;10.78;74.91;101949.66;5073868;28;20189;-72
2023/05/30 05:49:15;;;;;;;20.67;5.50;;;11.40;99.90;;;10.79;74.38;101951.38;5073919;28;20311;-76
2023/05/30 05:51:48;;;;;;;15.47;5.10;;;11.40;99.90;;;10.82;74.18;101940.38;5073807;28;20322;-76
2023/05/30 05:54:20;;;;;;;15.50;5.30;;;11.40;99.90;;;10.78;74.06;101944.31;5073522;28;20709;-76
2023/05/30 05:56:52;;;;;;;15.47;5.40;;;11.40;99.90;;;10.85;74.42;101950.81;5073785;28;20281;-76
2023/05/30 05:59:24;;;;;;;18.70;5.53;;;11.40;99.90;;;10.84;74.37;101951.81;5073781;28;20280;-76
2023/05/30 06:01:55;;;;;;;14.30;5.00;;;11.40;99.90;;;10.91;74.27;101950.28;5073588;28;20225;-77
2023/05/30 06:04:29;;;;;;;16.97;6.13;;;11.50;99.90;;;10.91;73.78;101952.97;5073622;28;20210;-77
2023/05/30 06:07:01;;;;;;;11.77;5.07;;;11.50;99.90;;;10.99;74.03;101961.19;5073347;28;20189;-77
2023/05/30 06:09:34;;;;;;;20.77;6.33;;;11.60;99.90;;;11.02;73.90;101963.63;5073567;28;20288;-78
2023/05/30 06:12:07;;;;;;;19.67;5.60;;;11.60;99.90;;;11.05;74.08;101963.34;5073200;28;20233;-78
2023/05/30 06:14:39;;;;;;;19.03;5.03;;;11.60;99.90;;;11.12;73.50;101959.16;5073557;28;20277;-78
2023/05/30 06:17:12;;;;;;;14.37;5.17;;;11.70;99.80;;;11.19;73.60;101954.94;5073248;28;20237;-77
2023/05/30 06:19:45;;;;;;;15.83;5.70;;;11.80;99.90;;;11.15;73.80;101954.38;5073492;28;20189;-76
2023/05/30 06:22:17;;;;;;;14.80;5.13;;;11.80;99.70;;;11.19;73.52;101949.59;5073647;28;20225;-77
2023/05/30 06:24:49;;;;;;;20.73;5.53;;;11.80;99.80;;;11.20;72.68;101951.25;5073380;28;20251;-77
2023/05/30 06:27:21;;;;;;;16.23;5.23;;;11.80;99.50;;;11.31;73.25;101948.50;5073433;28;20194;-77
2023/05/30 06:29:53;;;;;;;16.77;4.93;;;11.90;99.60;;;11.34;72.60;101952.72;5073358;28;20280;-77
2023/05/30 06:32:25;;;;;;;13.97;5.13;;;11.90;99.40;;;11.43;72.13;101958.13;5073323;28;20252;-77
2023/05/30 06:34:58;;;;;;;14.60;4.80;;;12.00;99.30;;;11.50;72.04;101961.97;5073336;28;20193;-77
2023/05/30 06:37:30;;;;;;;13.13;4.53;;;12.10;99.10;;;11.52;71.31;101960.00;5073487;28;20284;-77
2023/05/30 06:40:02;;;;;;;15.30;4.90;;;12.10;98.70;;;11.61;71.56;101961.84;5073376;28;20217;-76
2023/05/30 06:42:35;;;;;;;17.70;5.83;;;12.20;98.80;;;11.64;71.16;101969.63;5073239;28;20312;-76
2023/05/30 06:45:09;;;;;;;15.83;4.87;;;12.30;98.80;;;11.73;70.95;101967.13;5072944;28;20609;-76
2023/05/30 06:47:41;;;;;;;13.23;5.00;;;12.30;98.60;;;11.76;71.51;101958.81;5072911;28;20232;-76
2023/05/30 06:50:15;;;;;;;15.60;4.77;;;12.40;98.70;;;11.81;70.65;101957.44;5072866;28;20196;-77
2023/05/30 06:52:47;;;;;;;13.90;4.83;;;12.40;98.40;;;11.87;69.47;101964.06;5073082;28;20229;-76
2023/05/30 06:55:19;;;;;;;14.30;4.97;;;12.50;98.00;;;11.94;70.67;101957.16;5072854;28;20185;-77
2023/05/30 06:57:57;;;;;;;15.47;5.27;;;12.60;98.10;;;12.00;70.20;101961.94;5072844;28;20639;-77
2023/05/30 07:00:29;;;;;;;17.60;5.27;;;12.60;98.20;;;11.96;68.47;101961.38;5073170;28;20190;-77
2023/05/30 07:03:01;;;;;;;10.83;4.47;;;12.60;97.40;;;12.05;69.23;101959.72;5072731;28;20625;-76
2023/05/30 07:05:34;;;;;;;13.83;4.60;;;12.60;97.50;;;12.13;69.53;101963.38;5072971;28;20224;-76
2023/05/30 07:08:07;;;;;;;14.43;4.43;;;12.70;97.60;;;12.21;69.75;101965.38;5073154;28;20241;-77
2023/05/30 07:10:39;;;;;;;12.03;4.70;;;12.80;97.80;;;12.26;68.87;101973.00;5073024;28;20212;-77
2023/05/30 07:13:11;;;;;;;14.87;5.43;;;12.90;97.60;;;12.35;69.28;101972.16;5072957;28;20312;-65
2023/05/30 07:15:43;;;;;;;17.57;5.43;;;12.90;97.60;;;12.37;68.96;101975.53;5072783;28;20621;-74
2023/05/30 07:18:16;;;;;;;17.10;4.87;;;13.00;97.40;;;12.41;68.12;101972.41;5072921;28;20210;-74
2023/05/30 07:20:49;;;;;;;12.80;4.37;;;13.00;97.00;;;12.34;67.28;101976.66;5072807;28;20281;-72
2023/05/30 07:23:21;;;;;;;14.10;4.97;;;12.90;96.40;;;12.45;67.40;101972.97;5074310;28;20200;-73
2023/05/30 07:25:53;;;;;;;14.77;4.40;;;13.00;96.80;;;12.52;67.23;101974.09;5076265;28;20376;-74
2023/05/30 07:28:25;;;;;;;9.93;4.57;;;13.10;96.60;;;12.67;68.01;101984.25;5076780;28;20197;-73
2023/05/30 07:30:57;;;;;;;10.77;4.13;;;13.30;97.00;;;12.75;65.21;101985.38;5076666;28;20285;-73
2023/05/30 07:33:29;;;;;;;16.40;4.40;;;13.40;95.20;;;12.78;64.62;101974.34;5077362;28;20197;-72
2023/05/30 07:36:01;;;;;;;9.60;4.20;;;13.40;95.20;;;12.88;66.15;101977.84;5077368;28;20186;-73
2023/05/30 07:38:33;;;;;;;11.77;4.47;;;13.50;95.90;;;12.98;65.50;101976.00;5077014;28;20628;-73
2023/05/30 07:41:05;;;;;;;10.40;4.50;;;13.60;95.60;;;12.98;65.84;101970.63;5076941;28;20533;-73
2023/05/30 07:43:37;;;;;;;13.17;5.00;;;13.60;95.70;;;13.11;66.47;101971.19;5077687;28;20189;-73
2023/05/30 07:46:08;;;;;;;16.53;4.97;;;13.70;96.30;;;13.13;65.38;101979.94;5077331;28;20655;-72
2023/05/30 07:48:41;;;;;;;13.57;4.17;;;13.80;95.40;;;13.14;64.62;101970.91;5077224;28;20194;-73
2023/05/30 07:51:14;;;;;;;12.93;4.30;;;13.70;95.00;;;13.17;65.35;101970.59;5076010;28;20229;-73
2023/05/30 07:53:46;;;;;;;17.17;4.57;;;13.80;95.10;;;13.24;65.24;101971.69;5076008;28;20193;-73
2023/05/30 07:56:18;;;;;;;13.57;4.70;;;13.80;95.40;;;13.33;64.51;101976.19;5076239;28;20605;-73
2023/05/30 07:58:50;;;;;;;11.40;3.87;;;13.90;94.90;;;13.43;64.41;101963.53;5075605;28;20623;-73
2023/05/30 08:01:22;;;;;;;11.53;3.73;;;14.00;95.40;;;13.54;63.83;101966.03;5075468;28;20275;-73
2023/05/30 08:03:54;;;;;;;12.40;4.50;;;14.10;94.60;;;13.67;64.63;101963.84;5075812;28;20288;-73
2023/05/30 08:06:28;;;;;;;16.43;5.07;;;14.30;95.00;;;13.73;64.01;101967.78;5075789;28;20244;-73
2023/05/30 08:09:00;;;;;;;14.63;4.90;;;14.30;94.50;;;13.80;64.05;101970.72;5076477;28;20204;-73
2023/05/30 08:11:32;;;;;;;10.67;3.80;;;14.40;94.60;;;13.68;61.95;101967.38;5075349;28;20294;-73
2023/05/30 08:14:04;;;;;;;13.63;4.47;;;14.30;93.60;;;13.77;61.48;101965.63;5075681;28;20276;-73
2023/05/30 08:16:36;;;;;;;16.77;4.00;;;14.40;93.60;;;13.76;61.21;101966.63;5075357;28;20213;-73
2023/05/30 08:19:08;;;;;;;11.93;4.17;;;14.30;92.70;;;13.86;61.68;101952.09;5075597;28;20193;-72
2023/05/30 08:21:43;;;;;;;12.53;4.00;;;14.40;93.40;;;13.95;61.79;101966.50;5075184;28;20748;-72
2023/05/30 08:24:16;;;;;;;12.40;4.57;;;14.50;93.30;;;13.94;60.28;101954.03;5075855;28;20262;-74
2023/05/30 08:26:48;;;;;;;10.87;4.13;;;14.50;92.70;;;14.06;59.14;101952.81;5075395;28;20385;-74
2023/05/30 08:29:21;;;;;;;11.73;3.93;;;14.60;91.80;;;14.15;60.47;101954.56;5075424;28;20281;-72
2023/05/30 08:31:53;;;;;;;13.23;4.30;;;14.70;92.40;;;14.29;60.45;101959.41;5075317;28;20231;-72
2023/05/30 08:34:25;;;;;;;14.33;4.30;;;14.80;92.60;;;14.30;59.67;101957.56;5074991;28;20197;-74
2023/05/30 08:36:58;;;;;;;10.83;4.33;;;14.80;92.00;;;14.39;60.77;101953.97;5075281;28;20196;-72
2023/05/30 08:39:31;;;;;;;14.10;3.90;;;14.90;92.60;;;14.48;61.91;101961.13;5075255;28;20189;-74
2023/05/30 08:42:04;;;;;;;15.37;5.20;;;15.10;93.10;;;14.52;60.25;101957.94;5075094;28;20261;-74
2023/05/30 08:44:36;;;;;;;11.53;4.23;;;15.10;92.30;;;14.60;61.47;101963.41;5074854;28;20277;-73
2023/05/30 08:47:12;;;;;;;9.23;4.10;;;15.20;93.00;;;14.65;59.16;101966.50;5075170;28;20209;-73
2023/05/30 08:49:48;;;;;;;10.87;4.10;;;15.20;92.30;;;14.73;59.73;101963.84;5074689;28;20220;-73
2023/05/30 08:52:23;;;;;;;10.67;4.03;;;15.20;91.70;;;14.89;58.67;101968.53;5074562;28;20580;-74
2023/05/30 08:55:05;;;;;;;11.70;3.90;;;15.40;91.50;;;14.95;58.21;101967.03;5074914;28;20599;-72
2023/05/30 08:57:45;;;;;;;10.50;3.93;;;15.50;91.10;;;15.03;59.18;101967.09;5074880;28;20185;-74
2023/05/30 09:00:23;;;;;;;9.73;4.33;;;15.60;91.80;;;15.15;57.70;101968.50;5074465;28;20276;-74
2023/05/30 09:02:57;;;;;;;8.77;3.73;;;15.70;90.80;;;15.09;58.57;101970.00;5074630;28;20308;-72
2023/05/30 09:05:31;;;;;;;7.30;4.30;;;15.60;91.00;;;15.21;59.31;101974.09;5074548;28;20192;-73
2023/05/30 09:08:08;;;;;;;10.00;3.90;;;15.70;91.60;;;15.31;56.78;101973.97;5074687;28;20263;-73
2023/05/30 09:10:41;;;;;;;9.40;4.03;;;15.80;90.60;;;15.39;57.33;101968.63;5074558;28;20247;-74
2023/05/30 09:13:13;;;;;;;9.73;4.17;;;15.90;90.40;;;15.49;54.56;101973.91;5074514;28;20197;-74
2023/05/30 09:15:46;;;;;;;9.20;3.80;;;16.00;88.10;;;15.63;55.02;101976.84;5074311;28;20221;-74
2023/05/30 09:18:23;;;;;;;10.53;4.33;;;16.10;89.20;;;15.63;57.01;101976.00;5074466;28;20186;-74
2023/05/30 09:20:57;;;;;;;12.53;4.93;;;16.10;90.10;;;15.72;55.73;101983.97;5074051;28;20276;-71
2023/05/30 09:23:30;;;;;;;10.03;4.10;;;16.20;89.00;;;15.83;55.55;101980.13;5074038;28;20189;-72
2023/05/30 09:26:07;;;;;;;8.43;3.80;;;16.30;89.00;;;15.87;53.45;101984.19;5074430;28;20263;-73
2023/05/30 09:28:39;;;;;;;6.83;3.53;;;16.40;86.30;;;15.95;54.54;101980.66;5074243;28;20221;-74
2023/05/30 09:31:13;;;;;;;7.83;3.83;;;16.40;87.20;;;16.07;54.94;101988.28;5073744;28;20316;-72
2023/05/30 09:33:47;;;;;;;7.93;4.00;;;16.50;87.60;;;16.16;55.92;101986.47;5074281;28;20201;-72
2023/05/30 09:36:21;;;;;;;8.37;4.17;;;16.60;89.40;;;16.29;55.04;101989.50;5073756;28;20181;-73
2023/05/30 09:39:01;;;;;;;6.07;3.53;;;16.70;87.30;;;16.33;54.55;101980.06;5074180;28;20236;-73
2023/05/30 09:41:34;;;;;;;8.00;3.57;;;16.80;87.00;;;16.43;55.26;101983.44;5073956;28;20311;-72
2023/05/30 09:44:13;;;;;;;6.80;3.67;;;16.90;88.20;;;16.56;52.01;101988.38;5073675;28;20235;-74
2023/05/30 09:46:46;;;;;;;9.63;3.90;;;17.10;84.00;;;16.53;52.83;101984.13;5072971;28;20700;-74
2023/05/30 09:49:19;;;;;;;8.70;3.80;;;17.00;86.30;;;16.58;54.03;101975.50;5073909;28;20201;-73
2023/05/30 09:51:51;;;;;;;8.90;3.60;;;17.00;86.30;;;16.69;54.96;101988.69;5073816;28;20229;-71
2023/05/30 09:54:25;;;;;;;7.63;3.87;;;17.10;86.70;;;16.79;52.93;101978.56;5073845;28;20193;-72
2023/05/30 09:56:57;;;;;;;8.67;3.77;;;17.20;84.90;;;16.92;53.45;101975.34;5073791;28;20213;-74
2023/05/30 09:59:32;;;;;;;6.37;3.70;;;17.40;86.20;;;17.02;54.20;101978.69;5073772;28;20190;-72
2023/05/30 10:02:06;;;;;;;6.67;3.60;;;17.50;85.80;;;17.08;54.16;101969.88;5073864;28;20229;-72
2023/05/30 10:04:46;;;;;;;6.27;3.40;;;17.50;85.80;;;17.05;52.83;101978.34;5073831;28;20189;-72
2023/05/30 10:07:21;;;;;;;8.70;3.73;;;17.50;82.90;;;17.10;53.75;101975.97;5073651;28;20292;-72
2023/05/30 10:09:57;;;;;;;9.57;3.63;;;17.50;85.00;;;17.21;52.80;101967.47;5073485;28;20626;-72
2023/05/30 10:12:30;;;;;;;9.57;3.70;;;17.70;84.40;;;17.31;53.71;101969.97;5073694;28;20366;-74
2023/05/30 10:15:02;;;;;;;7.53;3.67;;;17.70;85.10;;;17.20;53.51;101965.78;5073745;28;20205;-74
2023/05/30 10:17:37;;;;;;;8.00;3.73;;;17.60;84.30;;;17.26;51.62;101970.50;5073470;28;20248;-73
2023/05/30 10:20:14;;;;;;;6.97;3.30;;;17.60;82.70;;;17.38;52.45;101963.69;5073721;28;20197;-74
2023/05/30 10:22:52;;;;;;;7.83;3.10;;;17.70;84.30;;;17.39;52.29;101973.53;5073758;28;20790;-72
2023/05/30 10:25:31;;;;;;;6.57;3.00;;;17.70;84.40;;;17.45;52.69;101961.97;5073512;28;20638;-72
2023/05/30 10:28:07;;;;;;;8.03;3.40;;;17.90;84.60;;;17.61;52.79;101963.78;5073680;28;20217;-74
2023/05/30 10:30:40;;;;;;;9.40;3.80;;;18.00;84.40;;;17.65;51.82;101954.28;5073881;28;20194;-74
2023/05/30 10:33:14;;;;;;;8.57;3.20;;;18.10;82.60;;;17.70;51.97;101955.47;5073784;28;20276;-73